Time;durP1;ratioP1;P1;durP2;ratioP2;P2;SDS_P1;SDS_P2;PMS_P1;PMS_P2;Temp;Humidity;BMP_temperature;BMP_pressure;BME280_temperature;BME280_humidity;BME280_pressure;Samples;Min_cycle;Max_cycle;Signal;HPM_P1;HPM_P2
2022/07/06 00:00:40;;;;;;;0.20;0.00;;;24.60;99.90;;;;;;21186794;28;20279;-68
2022/07/06 00:10:44;;;;;;;0.20;0.10;;;24.40;99.90;;;;;;21176701;28;20221;-69
2022/07/06 00:20:50;;;;;;;0.20;0.00;;;24.10;99.90;;;;;;21253050;28;20226;-69
2022/07/06 00:30:55;;;;;;;0.20;0.00;;;23.90;99.90;;;;;;21252463;28;20219;-69
2022/07/06 00:41:00;;;;;;;0.20;0.00;;;23.60;99.90;;;;;;21168135;28;20239;-69
2022/07/06 00:51:04;;;;;;;0.20;0.00;;;23.50;99.90;;;;;;21166499;28;20239;-69
2022/07/06 01:01:09;;;;;;;0.20;0.00;;;23.60;99.90;;;;;;21167346;28;20226;-69
2022/07/06 01:11:13;;;;;;;0.20;0.00;;;23.70;99.90;;;;;;21166542;28;20223;-69
2022/07/06 01:21:18;;;;;;;0.20;0.10;;;23.70;99.90;;;;;;21165572;28;20243;-69
2022/07/06 01:31:24;;;;;;;0.20;0.00;;;23.60;99.90;;;;;;21165444;28;20220;-70
2022/07/06 01:41:30;;;;;;;0.20;0.00;;;23.70;99.90;;;;;;21165331;28;20197;-69
2022/07/06 01:51:33;;;;;;;0.20;0.00;;;23.80;99.90;;;;;;21178618;28;20257;-69
2022/07/06 02:01:38;;;;;;;0.20;0.00;;;23.90;99.90;;;;;;21179961;28;20192;-69
2022/07/06 02:11:42;;;;;;;0.20;0.10;;;24.10;99.90;;;;;;21179442;28;20228;-68
2022/07/06 02:21:47;;;;;;;0.20;0.00;;;24.30;99.90;;;;;;21178177;28;20224;-67
2022/07/06 02:31:51;;;;;;;0.20;0.00;;;24.30;99.90;;;;;;21176697;28;20242;-69
2022/07/06 02:41:57;;;;;;;0.20;0.08;;;24.90;99.90;;;;;;21177096;28;20196;-68
2022/07/06 02:52:01;;;;;;;0.20;0.00;;;25.50;99.90;;;;;;21175932;28;20243;-69
2022/07/06 03:02:06;;;;;;;0.20;0.00;;;25.00;99.90;;;;;;21174378;28;20253;-68
2022/07/06 03:12:10;;;;;;;0.20;0.00;;;24.60;99.90;;;;;;21173612;28;20224;-69
2022/07/06 03:22:15;;;;;;;0.20;0.00;;;23.40;99.90;;;;;;21171993;28;20243;-68
2022/07/06 03:32:19;;;;;;;0.20;0.00;;;23.00;99.90;;;;;;21171472;28;20232;-69
2022/07/06 03:42:24;;;;;;;0.20;0.00;;;23.00;99.90;;;;;;21180167;28;20183;-69
2022/07/06 03:52:28;;;;;;;0.20;0.00;;;22.50;99.90;;;;;;21255669;28;20235;-68
2022/07/06 04:02:33;;;;;;;0.20;0.00;;;23.20;99.90;;;;;;21253635;28;20215;-68
2022/07/06 04:12:41;;;;;;;0.20;0.00;;;23.10;99.90;;;;;;21253397;28;20218;-68
2022/07/06 04:22:46;;;;;;;0.20;0.00;;;23.20;99.90;;;;;;21252226;28;20227;-67
2022/07/06 04:32:50;;;;;;;0.20;0.00;;;23.50;99.90;;;;;;21251886;28;20257;-68
2022/07/06 04:42:55;;;;;;;0.20;0.00;;;23.50;99.90;;;;;;21251072;28;20218;-68
2022/07/06 04:52:59;;;;;;;0.20;0.00;;;23.60;99.90;;;;;;21208439;28;20239;-69
2022/07/06 05:03:04;;;;;;;0.20;0.00;;;24.00;99.90;;;;;;21165454;28;20190;-68
2022/07/06 05:13:08;;;;;;;0.20;0.00;;;24.10;99.90;;;;;;21165889;28;20231;-68
2022/07/06 05:23:14;;;;;;;0.20;0.00;;;23.80;99.90;;;;;;21173317;28;20258;-68
2022/07/06 05:33:18;;;;;;;0.20;0.10;;;24.30;99.90;;;;;;21265489;28;20231;-69
2022/07/06 05:43:23;;;;;;;0.20;0.00;;;24.20;99.90;;;;;;21263961;28;20199;-69
2022/07/06 05:53:27;;;;;;;0.20;0.00;;;23.90;99.90;;;;;;21263706;28;20344;-68
2022/07/06 06:03:33;;;;;;;0.20;0.00;;;23.60;99.90;;;;;;21262736;28;20198;-69
2022/07/06 06:13:36;;;;;;;0.20;0.00;;;23.50;99.90;;;;;;21260143;28;20236;-68
2022/07/06 06:23:41;;;;;;;0.20;0.00;;;23.70;99.90;;;;;;21258278;28;20236;-68
2022/07/06 06:33:45;;;;;;;0.20;0.00;;;23.50;99.90;;;;;;21240287;28;20219;-68
2022/07/06 06:43:51;;;;;;;0.20;0.00;;;24.10;99.90;;;;;;21238604;28;20187;-68
2022/07/06 06:53:54;;;;;;;0.20;0.00;;;24.40;99.90;;;;;;21237652;28;20264;-69
2022/07/06 07:04:00;;;;;;;0.20;0.00;;;24.60;99.90;;;;;;21235005;28;20225;-68
2022/07/06 07:14:04;;;;;;;0.20;0.10;;;25.10;99.90;;;;;;21252714;28;20710;-68
2022/07/06 07:24:09;;;;;;;0.20;0.00;;;25.40;99.90;;;;;;21252325;28;20214;-68
2022/07/06 07:34:14;;;;;;;0.20;0.00;;;25.70;99.90;;;;;;21234394;28;20248;-69
2022/07/06 07:44:19;;;;;;;0.20;0.00;;;26.20;99.90;;;;;;21250876;28;20195;-70
2022/07/06 07:54:23;;;;;;;0.20;0.00;;;26.40;99.90;;;;;;21271858;27;20218;-69
2022/07/06 08:04:28;;;;;;;0.20;0.00;;;26.40;99.90;;;;;;21328838;27;20190;-68
2022/07/06 08:14:32;;;;;;;0.20;0.00;;;26.50;99.90;;;;;;21330546;27;20248;-68
2022/07/06 08:24:38;;;;;;;0.20;0.00;;;26.90;99.90;;;;;;21313745;27;20222;-68
2022/07/06 08:34:44;;;;;;;0.20;0.00;;;27.10;99.90;;;;;;21371976;27;20221;-69
2022/07/06 08:44:51;;;;;;;0.20;0.00;;;27.10;99.90;;;;;;21400649;27;20177;-70
2022/07/06 08:54:55;;;;;;;0.20;0.00;;;27.10;99.90;;;;;;21401536;27;20209;-68
2022/07/06 09:05:04;;;;;;;0.20;0.10;;;26.30;99.90;;;;;;21420125;27;20193;-68
2022/07/06 09:15:08;;;;;;;0.20;0.00;;;26.20;99.90;;;;;;21418545;27;20221;-68
2022/07/06 09:25:15;;;;;;;0.20;0.00;;;26.20;99.90;;;;;;21416871;27;20257;-69
2022/07/06 09:35:23;;;;;;;0.20;0.00;;;26.00;99.90;;;;;;21373953;27;20231;-69
2022/07/06 09:45:31;;;;;;;0.20;0.00;;;26.20;99.90;;;;;;21302995;28;20214;-69
2022/07/06 09:55:35;;;;;;;0.20;0.00;;;26.70;99.90;;;;;;21303495;28;20294;-69
2022/07/06 10:05:41;;;;;;;0.20;0.00;;;26.70;99.90;;;;;;21305212;27;20207;-71
2022/07/06 10:15:45;;;;;;;0.20;0.00;;;27.30;99.90;;;;;;21334164;27;20256;-73
2022/07/06 10:25:51;;;;;;;0.20;0.00;;;28.10;99.90;;;;;;21316321;27;20242;-68
2022/07/06 10:35:56;;;;;;;0.20;0.00;;;28.80;99.90;;;;;;21334022;27;20234;-68
2022/07/06 10:46:07;;;;;;;0.20;0.00;;;29.20;99.90;;;;;;21333007;27;20191;-71
2022/07/06 10:56:12;;;;;;;0.20;0.00;;;28.30;99.90;;;;;;21332961;27;20214;-69
2022/07/06 11:06:19;;;;;;;0.20;0.00;;;27.80;99.90;;;;;;21296052;27;20250;-69
2022/07/06 11:16:26;;;;;;;0.20;0.00;;;28.10;99.90;;;;;;21309363;27;20221;-70
2022/07/06 11:26:35;;;;;;;0.20;0.00;;;28.50;99.90;;;;;;21329269;27;20198;-69
2022/07/06 11:36:43;;;;;;;0.20;0.00;;;30.00;99.90;;;;;;21326096;27;20214;-69
2022/07/06 11:46:51;;;;;;;0.20;0.10;;;28.80;99.90;;;;;;21328616;27;20191;-70
2022/07/06 11:56:56;;;;;;;0.20;0.00;;;28.50;99.90;;;;;;21307421;27;20242;-71
2022/07/06 12:07:03;;;;;;;0.20;0.00;;;26.90;99.90;;;;;;21307430;27;20179;-70
2022/07/06 12:17:08;;;;;;;0.20;0.00;;;26.00;99.90;;;;;;21307177;27;20230;-70
2022/07/06 12:27:15;;;;;;;0.20;0.00;;;26.00;99.90;;;;;;21325576;27;20202;-70
2022/07/06 12:37:19;;;;;;;0.20;0.10;;;26.00;99.90;;;;;;21305626;27;20233;-70
2022/07/06 12:47:25;;;;;;;0.20;0.00;;;26.10;99.90;;;;;;21326073;27;20839;-71
2022/07/06 12:57:44;;;;;;;0.20;0.00;;;26.60;99.90;;;;;;21323532;27;20242;-69
2022/07/06 13:07:50;;;;;;;0.20;0.00;;;26.30;99.90;;;;;;21323935;28;20214;-70
2022/07/06 13:17:54;;;;;;;0.20;0.00;;;26.20;99.90;;;;;;21307148;28;20234;-73
2022/07/06 13:27:59;;;;;;;0.20;0.00;;;26.10;99.90;;;;;;21327185;28;20215;-71
2022/07/06 13:38:03;;;;;;;0.20;0.00;;;26.00;99.90;;;;;;21320340;28;20230;-67
2022/07/06 13:48:08;;;;;;;0.20;0.00;;;28.00;99.90;;;;;;21334414;27;20206;-71
2022/07/06 13:58:12;;;;;;;0.20;0.00;;;28.60;99.90;;;;;;21315914;27;20234;-69
2022/07/06 14:08:17;;;;;;;0.20;0.00;;;29.10;99.90;;;;;;21333458;27;20202;-71
2022/07/06 14:18:21;;;;;;;0.20;0.00;;;28.70;99.90;;;;;;21331761;27;20261;-70
2022/07/06 14:28:27;;;;;;;0.20;0.00;;;30.00;99.90;;;;;;21339986;27;20216;-69
2022/07/06 14:38:30;;;;;;;0.20;0.00;;;28.40;99.90;;;;;;21334779;27;20226;-70
2022/07/06 14:48:35;;;;;;;0.20;0.00;;;28.20;99.90;;;;;;21328910;27;20202;-71
2022/07/06 14:58:39;;;;;;;0.20;0.00;;;28.90;99.90;;;;;;21325646;27;20215;-68
2022/07/06 15:08:52;;;;;;;0.20;0.00;;;30.00;99.90;;;;;;21325857;27;20190;-67
2022/07/06 15:18:55;;;;;;;0.20;0.10;;;29.30;99.90;;;;;;21323994;27;20281;-67
2022/07/06 15:29:01;;;;;;;0.20;0.00;;;28.30;99.90;;;;;;21325547;27;20250;-68
2022/07/06 15:39:04;;;;;;;0.20;0.00;;;27.50;99.90;;;;;;21323455;27;20224;-71
2022/07/06 15:49:10;;;;;;;0.20;0.00;;;28.00;99.90;;;;;;21324154;27;20280;-72
2022/07/06 15:59:14;;;;;;;0.20;0.00;;;27.70;99.90;;;;;;21324937;27;20198;-70
2022/07/06 16:09:19;;;;;;;0.20;0.00;;;27.50;99.90;;;;;;21323318;27;20218;-68
2022/07/06 16:19:23;;;;;;;0.20;0.10;;;27.20;99.90;;;;;;21322376;27;20262;-70
2022/07/06 16:29:28;;;;;;;0.20;0.00;;;26.90;99.90;;;;;;21321500;27;20278;-68
2022/07/06 16:39:32;;;;;;;0.20;0.00;;;26.50;99.90;;;;;;21320625;27;20203;-72
2022/07/06 16:49:37;;;;;;;0.20;0.00;;;26.20;99.90;;;;;;21320051;27;20210;-72
2022/07/06 16:59:41;;;;;;;0.20;0.00;;;26.10;99.90;;;;;;21301150;27;20261;-72
2022/07/06 17:09:46;;;;;;;0.20;0.00;;;26.50;99.90;;;;;;21318558;28;20241;-71
2022/07/06 17:19:57;;;;;;;0.20;0.00;;;25.30;99.90;;;;;;21311180;27;20226;-71
2022/07/06 17:30:03;;;;;;;0.20;0.00;;;24.80;99.90;;;;;;21317092;27;20238;-72
2022/07/06 17:40:08;;;;;;;0.20;0.00;;;24.90;99.90;;;;;;21335014;27;20210;-70
2022/07/06 17:50:13;;;;;;;0.20;0.00;;;25.40;99.90;;;;;;21316317;27;20282;-71
2022/07/06 18:00:17;;;;;;;0.20;0.00;;;25.80;99.90;;;;;;21332747;27;20214;-71
2022/07/06 18:10:22;;;;;;;0.20;0.00;;;26.10;99.90;;;;;;21314578;27;20238;-72
2022/07/06 18:20:26;;;;;;;0.20;0.08;;;26.10;99.90;;;;;;21333480;27;20234;-71
2022/07/06 18:30:31;;;;;;;0.20;0.00;;;25.70;99.90;;;;;;21330169;27;20219;-72
2022/07/06 18:40:36;;;;;;;0.20;0.10;;;25.60;99.90;;;;;;21331661;27;20218;-71
2022/07/06 18:50:42;;;;;;;0.20;0.10;;;25.60;99.90;;;;;;21330756;27;20252;-71
2022/07/06 19:00:46;;;;;;;0.20;0.10;;;25.50;99.90;;;;;;21329168;27;20215;-71
2022/07/06 19:10:51;;;;;;;0.20;0.00;;;25.30;99.90;;;;;;21329234;27;20238;-71
2022/07/06 19:20:55;;;;;;;0.20;0.00;;;25.10;99.90;;;;;;21328416;27;20246;-73
2022/07/06 19:31:01;;;;;;;0.20;0.00;;;24.90;99.90;;;;;;21309268;27;20234;-71
2022/07/06 19:41:04;;;;;;;0.20;0.00;;;24.70;99.90;;;;;;21327381;27;20194;-72
2022/07/06 19:51:10;;;;;;;0.20;0.00;;;24.60;99.90;;;;;;21305555;27;20237;-73
2022/07/06 20:01:14;;;;;;;0.20;0.00;;;24.50;99.90;;;;;;21324863;27;20258;-74
2022/07/06 20:11:20;;;;;;;0.20;0.00;;;24.60;99.90;;;;;;21302165;27;20243;-73
2022/07/06 20:21:23;;;;;;;0.20;0.00;;;24.70;99.90;;;;;;21323929;27;20269;-72
2022/07/06 20:31:29;;;;;;;0.20;0.00;;;24.80;99.90;;;;;;21259152;27;20235;-72
2022/07/06 20:41:32;;;;;;;0.20;0.00;;;25.00;99.90;;;;;;21238576;28;20206;-73
2022/07/06 20:51:38;;;;;;;0.20;0.00;;;25.10;99.90;;;;;;21237619;28;20231;-73
2022/07/06 21:01:42;;;;;;;0.20;0.00;;;25.00;99.90;;;;;;21230582;28;20194;-74
2022/07/06 21:11:47;;;;;;;0.20;0.00;;;24.90;99.90;;;;;;21322862;28;20218;-73
2022/07/06 21:21:51;;;;;;;0.20;0.05;;;25.10;99.90;;;;;;21322319;28;20269;-72
2022/07/06 21:31:58;;;;;;;0.20;0.00;;;25.60;99.90;;;;;;21254341;28;20242;-73
2022/07/06 21:42:02;;;;;;;0.20;0.00;;;25.20;99.90;;;;;;21219205;28;20199;-73
2022/07/06 21:52:08;;;;;;;0.20;0.03;;;25.40;99.90;;;;;;21236992;28;20249;-74
2022/07/06 22:02:11;;;;;;;0.20;0.10;;;25.30;99.90;;;;;;21221871;28;20211;-74
2022/07/06 22:12:17;;;;;;;0.20;0.10;;;25.00;99.90;;;;;;21251745;28;20239;-74
2022/07/06 22:22:20;;;;;;;0.20;0.00;;;24.80;99.90;;;;;;21249964;28;20254;-72
2022/07/06 22:32:26;;;;;;;0.20;0.10;;;24.80;99.90;;;;;;21248638;28;20234;-73
2022/07/06 22:42:30;;;;;;;0.20;0.00;;;24.70;99.90;;;;;;21276386;27;20191;-74
2022/07/06 22:52:35;;;;;;;0.20;0.00;;;24.50;99.90;;;;;;21314536;27;20249;-73
2022/07/06 23:02:39;;;;;;;0.20;0.00;;;24.30;99.90;;;;;;21333864;27;20250;-73
2022/07/06 23:12:44;;;;;;;0.20;0.10;;;24.20;99.90;;;;;;21333837;27;20238;-73
2022/07/06 23:22:48;;;;;;;0.20;0.00;;;24.20;99.90;;;;;;21315699;27;20238;-72
2022/07/06 23:32:54;;;;;;;0.20;0.00;;;24.10;99.90;;;;;;21274940;27;20286;-72
2022/07/06 23:42:58;;;;;;;0.20;0.00;;;24.00;99.90;;;;;;21228684;28;20268;-72
2022/07/06 23:53:03;;;;;;;0.20;0.00;;;24.10;99.90;;;;;;21246398;28;20271;-72
